createdAt,value
2022-07-27T00:01:20.170Z,70.94344
2022-07-27T00:06:21.837Z,71.76188
2022-07-27T00:11:23.589Z,70.96497
2022-07-27T00:16:25.329Z,72.73979
2022-07-27T00:21:26.933Z,73.12852
2022-07-27T00:26:28.581Z,73.3439
2022-07-27T00:31:30.218Z,72.17502
2022-07-27T00:36:31.713Z,72.78732
2022-07-27T00:41:33.184Z,76.56057
2022-07-27T00:46:34.907Z,75.35153
2022-07-27T00:51:36.500Z,78.87545
2022-07-27T00:56:38.472Z,73.21771
2022-07-27T01:01:40.017Z,72.24547
2022-07-27T01:06:41.504Z,73.76411
2022-07-27T01:11:43.082Z,77.13142
2022-07-27T01:16:44.563Z,81.67453
2022-07-27T01:21:46.033Z,78.34227
2022-07-27T01:26:47.781Z,75.54966
2022-07-27T01:31:49.307Z,73.62924
2022-07-27T01:36:50.758Z,74.75426
2022-07-27T01:41:52.590Z,73.8439
2022-07-27T01:46:54.088Z,76.04199
2022-07-27T01:51:55.616Z,75.50422
2022-07-27T01:56:58.552Z,75.32251
2022-07-27T02:02:00.206Z,77.40447
2022-07-27T02:07:01.691Z,76.85152
2022-07-27T02:12:03.267Z,79.64349
2022-07-27T02:17:04.812Z,80.30868
2022-07-27T02:22:06.536Z,79.64808
2022-07-27T02:27:08.380Z,76.52086
2022-07-27T02:32:09.806Z,79.46415
2022-07-27T02:37:11.509Z,83.03478
2022-07-27T02:42:13.035Z,81.02459
2022-07-27T02:47:14.985Z,78.46972
2022-07-27T02:52:16.429Z,79.88904
2022-07-27T02:57:18.058Z,76.23729
2022-07-27T03:02:19.511Z,80.14158
2022-07-27T03:07:20.945Z,76.74705
2022-07-27T03:12:22.455Z,77.09503
2022-07-27T03:17:23.895Z,77.96937
2022-07-27T03:22:25.349Z,76.33127
2022-07-27T03:27:27.279Z,75.81556
2022-07-27T03:32:28.715Z,81.38466
2022-07-27T03:37:30.353Z,83.89249
2022-07-27T03:42:31.813Z,87.49019
2022-07-27T03:47:33.230Z,88.42814
2022-07-27T03:52:34.778Z,81.24007
2022-07-27T03:57:36.669Z,79.84902
2022-07-27T04:02:38.277Z,80.83608
2022-07-27T04:07:39.889Z,79.01397
2022-07-27T04:12:41.427Z,78.38723
2022-07-27T04:17:56.221Z,80.89288
2022-07-27T04:22:58.973Z,81.24651
2022-07-27T04:28:00.842Z,80.70905
2022-07-27T04:33:02.442Z,79.7857
2022-07-27T04:38:05.923Z,78.97622
2022-07-27T04:43:07.785Z,77.0125
2022-07-27T04:48:09.464Z,77.55437
2022-07-27T04:53:11.110Z,77.42126
2022-07-27T04:58:13.249Z,79.12371
2022-07-27T05:03:14.667Z,79.76867
2022-07-27T05:08:16.108Z,85.1546
2022-07-27T05:13:17.571Z,83.71423
2022-07-27T05:18:19.247Z,87.42289
2022-07-27T05:23:20.914Z,80.62177
2022-07-27T05:28:22.946Z,79.96306
2022-07-27T05:33:24.432Z,78.17325
2022-07-27T05:38:26.086Z,75.94781
2022-07-27T05:43:27.723Z,78.45333
2022-07-27T05:48:29.275Z,84.61582
2022-07-27T05:53:30.905Z,83.68101
2022-07-27T05:58:32.646Z,84.85888
2022-07-27T06:03:34.189Z,83.3714
2022-07-27T06:08:35.713Z,82.75709
2022-07-27T06:13:37.302Z,83.95232
2022-07-27T06:18:43.499Z,80.53275
2022-07-27T06:23:44.973Z,77.75293
2022-07-27T06:28:46.725Z,80.13658
2022-07-27T06:33:48.277Z,81.03888
2022-07-27T06:38:52.727Z,80.96454
2022-07-27T06:43:54.189Z,79.24043
2022-07-27T06:48:55.672Z,81.98807
2022-07-27T06:53:57.462Z,78.69839
2022-07-27T06:58:59.532Z,77.04631
2022-07-27T07:04:01.209Z,75.26491
2022-07-27T07:09:02.711Z,76.01442
2022-07-27T07:14:04.538Z,71.8147
2022-07-27T07:19:05.969Z,73.12102
2022-07-27T07:24:07.455Z,72.16939
2022-07-27T07:29:09.589Z,73.49052
2022-07-27T07:34:11.275Z,69.13875
2022-07-27T07:39:12.995Z,69.73302
2022-07-27T07:44:14.844Z,66.89049
2022-07-27T07:49:16.761Z,64.87778
2022-07-27T07:54:18.665Z,61.88517
2022-07-27T07:59:20.648Z,61.74969
2022-07-27T08:04:22.055Z,61.1739
2022-07-27T08:09:23.467Z,59.64799
2022-07-27T08:14:25.019Z,55.36553
2022-07-27T08:19:26.585Z,58.29643
2022-07-27T08:24:28.126Z,55.03331
2022-07-27T08:29:36.614Z,51.44956
2022-07-27T08:34:38.787Z,52.98244
2022-07-27T08:40:38.185Z,53.62613
2022-07-27T08:45:41.017Z,57.43308
2022-07-27T08:50:43.037Z,58.17871
2022-07-27T08:55:44.637Z,59.13883
2022-07-27T09:00:46.525Z,56.8812
2022-07-27T09:05:48.043Z,57.92026
2022-07-27T09:10:49.494Z,58.67832
2022-07-27T09:21:14.197Z,55.60986
2022-07-27T09:26:30.377Z,57.16862
2022-07-27T09:31:33.196Z,56.75629
2022-07-27T09:36:34.925Z,56.81484
2022-07-27T09:41:36.390Z,54.71712
2022-07-27T09:46:40.886Z,55.27264
2022-07-27T09:52:00.474Z,55.48286
2022-07-27T09:57:02.686Z,55.16895
2022-07-27T10:02:04.459Z,54.7568
2022-07-27T10:07:09.496Z,53.36124
2022-07-27T10:12:14.643Z,51.46422
2022-07-27T10:17:17.491Z,53.18957
2022-07-27T10:22:18.999Z,51.46018
2022-07-27T10:27:20.652Z,51.59632
2022-07-27T10:32:22.725Z,49.1233
2022-07-27T10:37:24.273Z,50.69741
2022-07-27T10:42:25.965Z,49.73876
2022-07-27T10:47:27.478Z,48.61247
2022-07-27T10:52:28.953Z,48.72907
2022-07-27T10:57:30.493Z,49.26047
2022-07-27T11:02:32.219Z,48.5161
2022-07-27T11:07:44.437Z,48.16682
2022-07-27T11:12:46.917Z,46.23522
2022-07-27T11:17:56.768Z,46.97694
2022-07-27T11:28:33.503Z,43.99168
2022-07-27T11:33:35.146Z,42.65286
2022-07-27T11:38:36.615Z,41.85044
2022-07-27T11:43:38.332Z,41.66473
2022-07-27T11:49:05.050Z,40.69444
2022-07-27T11:54:07.929Z,40.01321
2022-07-27T11:59:09.388Z,40.14034
2022-07-27T12:04:11.733Z,39.69499
2022-07-27T12:09:13.711Z,40.12809
2022-07-27T12:14:15.445Z,38.04237
2022-07-27T12:19:17.072Z,39.69353
2022-07-27T12:24:18.567Z,38.64625
2022-07-27T12:29:20.061Z,40.3347
2022-07-27T12:34:22.494Z,38.47526
2022-07-27T12:39:23.940Z,38.41942
2022-07-27T12:44:25.348Z,37.33899
2022-07-27T12:49:28.053Z,37.09523
2022-07-27T12:54:29.696Z,36.42702
2022-07-27T12:59:31.133Z,35.57248
2022-07-27T13:04:32.756Z,37.20107
2022-07-27T13:10:02.249Z,37.03156
2022-07-27T13:15:05.570Z,35.64071
2022-07-27T13:20:07.258Z,36.49626
2022-07-27T13:25:16.027Z,34.32892
2022-07-27T13:30:18.514Z,35.79166
2022-07-27T13:35:20.256Z,35.31821
2022-07-27T13:40:21.666Z,35.36021
2022-07-27T13:45:23.192Z,35.71603
2022-07-27T13:50:24.734Z,35.54072
2022-07-27T13:55:28.411Z,33.27824
2022-07-27T14:00:30.101Z,30.83753
2022-07-27T14:05:32.194Z,29.73582
2022-07-27T14:10:36.346Z,30.1335
2022-07-27T14:15:54.570Z,29.01014
2022-07-27T14:20:57.707Z,27.74755
2022-07-27T14:25:59.726Z,28.91165
2022-07-27T14:31:01.402Z,28.45461
2022-07-27T14:36:03.619Z,29.15308
2022-07-27T14:41:05.084Z,29.20913
2022-07-27T14:46:06.581Z,29.90345
2022-07-27T14:51:08.051Z,29.63836
2022-07-27T14:56:10.105Z,30.15479
2022-07-27T15:01:11.783Z,31.2289
2022-07-27T15:06:14.097Z,31.08121
2022-07-27T15:11:15.571Z,31.91578
2022-07-27T15:16:17.065Z,34.59539
2022-07-27T15:21:18.682Z,33.98727
2022-07-27T15:26:20.168Z,35.0939
2022-07-27T15:31:22.055Z,36.07626
2022-07-27T15:36:33.402Z,36.1552
2022-07-27T15:41:37.065Z,37.39346
2022-07-27T15:46:38.520Z,37.84587
2022-07-27T15:51:40.133Z,39.13821
2022-07-27T15:56:41.676Z,38.84779
2022-07-27T16:01:43.164Z,38.51007
2022-07-27T16:06:44.958Z,40.14749
2022-07-27T16:11:46.414Z,41.73146
2022-07-27T16:16:47.987Z,40.5847
2022-07-27T16:21:54.873Z,41.05326
2022-07-27T16:26:57.411Z,41.55422
2022-07-27T16:31:59.100Z,41.47546
2022-07-27T16:37:00.856Z,43.15481
2022-07-27T16:42:02.470Z,43.79654
2022-07-27T16:47:04.059Z,43.70256
2022-07-27T16:52:06.736Z,44.81282
2022-07-27T16:57:08.655Z,44.5574
2022-07-27T17:02:10.299Z,44.56834
2022-07-27T17:07:12.308Z,45.76835
2022-07-27T17:12:17.614Z,44.28058
2022-07-27T17:17:20.597Z,45.43751
2022-07-27T17:22:22.199Z,45.5142
2022-07-27T17:27:23.698Z,45.63774
2022-07-27T17:32:25.267Z,46.68294
2022-07-27T17:37:38.586Z,46.92096
2022-07-27T17:42:57.937Z,48.34798
2022-07-27T17:47:59.403Z,56.55308
2022-07-27T17:53:00.979Z,56.36589
2022-07-27T17:58:02.375Z,54.12036
2022-07-27T18:03:03.965Z,55.33429
2022-07-27T18:08:05.825Z,58.37327
2022-07-27T18:13:07.270Z,58.32232
2022-07-27T18:18:08.747Z,58.94626
2022-07-27T18:23:10.222Z,58.42732
2022-07-27T18:28:11.727Z,63.52606
2022-07-27T18:33:13.308Z,63.88444
2022-07-27T18:38:15.020Z,63.85157
2022-07-27T18:43:18.510Z,64.34571
2022-07-27T18:48:19.973Z,67.11454
2022-07-27T18:53:21.533Z,68.20204
2022-07-27T18:58:23.007Z,68.81462
2022-07-27T19:03:24.838Z,69.74025
2022-07-27T19:08:29.746Z,70.39905
2022-07-27T19:13:31.271Z,68.56806
2022-07-27T19:18:32.846Z,69.08089
2022-07-27T19:23:34.413Z,70.87047
2022-07-27T19:28:35.855Z,73.90571
2022-07-27T19:33:37.395Z,74.7942
2022-07-27T19:38:39.122Z,78.88607
2022-07-27T19:43:40.822Z,76.62028
2022-07-27T19:48:42.895Z,76.83691
2022-07-27T19:53:44.720Z,74.81465
2022-07-27T19:58:46.201Z,79.90936
2022-07-27T20:03:52.611Z,79.94544
2022-07-27T20:08:56.701Z,83.08358
2022-07-27T20:13:58.242Z,79.68905
2022-07-27T20:18:59.902Z,82.82085
2022-07-27T20:24:01.528Z,85.42281
2022-07-27T20:29:03.027Z,84.84033
2022-07-27T20:34:04.596Z,82.27847
2022-07-27T20:39:07.328Z,82.53501
2022-07-27T20:44:09.073Z,85.28461
2022-07-27T20:49:10.923Z,82.72602
2022-07-27T20:54:12.696Z,89.489
2022-07-27T20:59:16.659Z,89.60673
2022-07-27T21:04:18.636Z,84.49904
2022-07-27T21:09:20.376Z,83.11257
2022-07-27T21:14:21.924Z,79.32598
2022-07-27T21:19:23.369Z,77.41796
2022-07-27T21:24:24.981Z,78.28608
2022-07-27T21:29:26.942Z,78.51686
2022-07-27T21:34:33.314Z,76.92753
2022-07-27T21:39:35.090Z,78.02314
2022-07-27T21:44:36.496Z,79.90216
2022-07-27T21:49:38.148Z,75.63673
2022-07-27T21:54:39.812Z,75.81665
2022-07-27T21:59:41.302Z,77.20247
2022-07-27T22:04:42.748Z,78.96912
2022-07-27T22:09:44.517Z,81.82539
2022-07-27T22:14:45.951Z,82.96968
2022-07-27T22:19:47.394Z,79.95732
2022-07-27T22:24:48.931Z,82.53273
2022-07-27T22:29:50.329Z,81.26201
2022-07-27T22:34:51.864Z,84.09375
2022-07-27T22:39:55.929Z,85.93243
2022-07-27T22:44:57.393Z,85.38735
2022-07-27T22:49:58.853Z,83.93413
2022-07-27T22:55:00.320Z,87.35651
2022-07-27T23:00:01.928Z,88.91103
2022-07-27T23:05:03.418Z,88.89267
2022-07-27T23:10:05.102Z,88.48057
2022-07-27T23:15:06.545Z,88.48366
2022-07-27T23:20:08.122Z,88.44036
2022-07-27T23:25:09.878Z,86.25636
2022-07-27T23:30:16.302Z,82.72507
2022-07-27T23:35:17.776Z,82.03801
2022-07-27T23:40:19.506Z,82.55575
2022-07-27T23:45:21.197Z,80.13729
2022-07-27T23:50:22.690Z,81.87755
2022-07-27T23:55:24.188Z,82.63099
